Time;durP1;ratioP1;P1;durP2;ratioP2;P2;SDS_P1;SDS_P2;PMS_P1;PMS_P2;Temp;Humidity;BMP_temperature;BMP_pressure;BME280_temperature;BME280_humidity;BME280_pressure;Samples;Min_cycle;Max_cycle;Signal;HPM_P1;HPM_P2
2023/05/24 00:00:41;;;;;;;4.90;1.58;;;;;;;14.68;96.73;96448.88;5076603;28;20203;-71
2023/05/24 00:03:08;;;;;;;1.33;0.80;;;;;;;14.87;96.61;96440.19;5075454;28;20231;-71
2023/05/24 00:05:36;;;;;;;1.25;1.13;;;;;;;14.67;97.69;96439.28;5076081;28;20223;-70
2023/05/24 00:08:03;;;;;;;3.42;1.67;;;;;;;14.75;97.56;96440.94;5075525;28;20220;-70
2023/05/24 00:10:31;;;;;;;2.45;1.13;;;;;;;14.64;97.86;96441.53;5075740;28;20283;-73
2023/05/24 00:12:57;;;;;;;2.67;1.48;;;;;;;14.68;98.68;96435.63;5075824;28;20200;-71
2023/05/24 00:15:24;;;;;;;0.60;0.60;;;;;;;14.64;97.88;96434.38;5075485;28;20203;-73
2023/05/24 00:17:51;;;;;;;1.85;1.45;;;;;;;14.44;99.17;96431.81;5075339;28;20929;-70
2023/05/24 00:20:19;;;;;;;0.82;0.73;;;;;;;14.42;98.91;96433.84;5075996;28;20215;-73
2023/05/24 00:22:46;;;;;;;1.50;0.98;;;;;;;14.30;99.61;96441.53;5079278;28;20295;-71
2023/05/24 00:25:13;;;;;;;1.80;1.25;;;;;;;14.39;98.38;96432.41;5079185;28;20304;-73
2023/05/24 00:27:40;;;;;;;2.40;1.58;;;;;;;14.35;99.13;96438.31;5078985;28;20238;-70
2023/05/24 00:30:08;;;;;;;2.00;1.33;;;;;;;14.36;99.03;96439.94;5079861;28;20227;-70
2023/05/24 00:32:34;;;;;;;1.55;1.08;;;;;;;14.07;100.00;96445.44;5079634;28;20200;-71
2023/05/24 00:35:01;;;;;;;1.75;0.77;;;;;;;14.07;100.00;96448.06;5079415;28;20215;-70
2023/05/24 00:37:28;;;;;;;2.63;1.67;;;;;;;14.18;99.58;96452.88;5078540;28;20235;-71
2023/05/24 00:39:54;;;;;;;1.77;1.27;;;;;;;14.15;100.00;96453.25;5079231;28;20291;-71
2023/05/24 00:42:21;;;;;;;1.33;1.00;;;;;;;14.12;99.34;96451.00;5079954;28;20200;-71
2023/05/24 00:44:49;;;;;;;2.15;1.45;;;;;;;14.06;99.43;96447.25;5078719;28;20215;-71
2023/05/24 00:47:16;;;;;;;5.82;1.60;;;;;;;13.95;100.00;96452.28;5080740;28;20291;-69
2023/05/24 00:49:43;;;;;;;2.70;1.73;;;;;;;13.79;100.00;96443.78;5083165;28;20204;-68
2023/05/24 00:52:10;;;;;;;2.22;1.48;;;;;;;13.87;100.00;96447.09;5082888;28;20210;-72
2023/05/24 00:54:37;;;;;;;4.07;1.58;;;;;;;13.80;100.00;96442.78;5083082;28;20366;-69
2023/05/24 00:57:04;;;;;;;2.47;1.27;;;;;;;13.89;100.00;96442.44;5082575;28;21135;-70
2023/05/24 00:59:31;;;;;;;2.42;1.17;;;;;;;13.79;100.00;96441.13;5083032;28;20793;-72
2023/05/24 01:01:58;;;;;;;2.08;1.38;;;;;;;13.93;100.00;96443.69;5082657;28;20214;-72
2023/05/24 01:04:26;;;;;;;4.13;1.95;;;;;;;13.88;100.00;96450.59;5082678;28;20219;-70
2023/05/24 01:07:06;;;;;;;1.67;1.33;;;;;;;13.89;100.00;96442.44;5082465;28;20683;-71
2023/05/24 01:09:37;;;;;;;1.55;1.10;;;;;;;13.91;100.00;96444.88;5081317;28;20223;-72
2023/05/24 01:12:15;;;;;;;1.48;1.30;;;;;;;13.96;100.00;96451.25;5083059;28;20214;-72
2023/05/24 01:14:53;;;;;;;1.83;1.25;;;;;;;13.99;99.71;96448.22;5082245;28;20656;-72
2023/05/24 01:17:27;;;;;;;1.52;1.27;;;;;;;13.87;100.00;96449.75;5081649;28;20286;-72
2023/05/24 01:19:58;;;;;;;1.90;1.15;;;;;;;13.79;100.00;96449.88;5082218;28;20204;-69
2023/05/24 01:22:39;;;;;;;3.08;1.88;;;;;;;13.67;100.00;96448.78;5082304;28;20681;-71
2023/05/24 01:25:13;;;;;;;3.45;1.17;;;;;;;13.64;100.00;96446.50;5082426;28;20271;-72
2023/05/24 01:27:42;;;;;;;1.33;0.90;;;;;;;13.77;100.00;96446.63;5081816;28;20220;-71
2023/05/24 01:30:09;;;;;;;3.08;1.35;;;;;;;13.58;100.00;96447.28;5081572;28;20204;-70
2023/05/24 01:32:37;;;;;;;4.47;2.25;;;;;;;13.71;100.00;96455.31;5082152;28;21079;-71
2023/05/24 01:35:04;;;;;;;2.63;1.73;;;;;;;13.70;100.00;96458.97;5081351;28;20218;-69
2023/05/24 01:37:31;;;;;;;3.13;1.35;;;;;;;13.45;100.00;96452.44;5082356;28;20242;-72
2023/05/24 01:39:58;;;;;;;0.93;0.82;;;;;;;13.38;100.00;96455.19;5081507;28;20204;-70
2023/05/24 01:42:27;;;;;;;2.78;1.25;;;;;;;13.41;100.00;96450.34;5082407;28;20219;-71
2023/05/24 01:45:04;;;;;;;1.90;1.40;;;;;;;13.50;100.00;96454.50;5081486;28;20207;-70
2023/05/24 01:47:42;;;;;;;1.02;0.77;;;;;;;13.48;100.00;96456.53;5081463;28;20699;-71
2023/05/24 01:50:16;;;;;;;1.77;0.93;;;;;;;13.36;100.00;96462.53;5082868;28;20571;-70
2023/05/24 01:52:44;;;;;;;2.42;1.50;;;;;;;13.47;100.00;96447.75;5082129;28;21026;-72
2023/05/24 01:55:14;;;;;;;1.42;1.20;;;;;;;13.51;100.00;96451.66;5080063;28;20207;-69
2023/05/24 01:57:45;;;;;;;3.03;1.30;;;;;;;13.53;100.00;96449.66;5081497;28;20235;-72
2023/05/24 02:00:15;;;;;;;1.63;1.45;;;;;;;13.44;100.00;96447.31;5081416;28;20230;-71
2023/05/24 02:02:41;;;;;;;3.25;1.10;;;;;;;13.33;100.00;96439.91;5081652;28;20196;-72
2023/05/24 02:05:09;;;;;;;1.67;1.30;;;;;;;13.44;100.00;96439.38;5081714;28;20204;-68
2023/05/24 02:07:36;;;;;;;0.70;0.70;;;;;;;13.37;100.00;96441.16;5079064;28;20223;-73
2023/05/24 02:10:03;;;;;;;3.85;1.75;;;;;;;13.39;100.00;96433.84;5081434;28;20219;-69
2023/05/24 02:12:30;;;;;;;4.00;2.15;;;;;;;13.36;100.00;96438.69;5081787;28;20227;-72
2023/05/24 02:14:56;;;;;;;1.50;1.00;;;;;;;13.35;100.00;96439.69;5081653;28;20195;-70
2023/05/24 02:17:25;;;;;;;3.72;1.08;;;;;;;13.38;100.00;96445.44;5081219;28;20219;-72
2023/05/24 02:19:52;;;;;;;2.38;1.33;;;;;;;13.27;100.00;96440.63;5081071;28;20290;-70
2023/05/24 02:22:21;;;;;;;2.10;1.25;;;;;;;13.31;100.00;96449.03;5081240;28;20208;-68
2023/05/24 02:24:47;;;;;;;4.20;2.03;;;;;;;13.28;100.00;96452.06;5081663;28;20200;-71
2023/05/24 02:27:14;;;;;;;0.95;0.60;;;;;;;13.26;99.88;96451.41;5080188;28;20235;-69
2023/05/24 02:29:40;;;;;;;2.03;1.50;;;;;;;13.06;97.56;96448.56;5081518;28;20663;-69
2023/05/24 02:32:07;;;;;;;1.23;1.13;;;;;;;12.96;93.67;96457.81;5081184;28;20210;-68
2023/05/24 02:34:35;;;;;;;1.08;0.82;;;;;;;13.08;91.93;96451.84;5081510;28;20207;-69
2023/05/24 02:37:01;;;;;;;0.85;0.55;;;;;;;13.05;91.46;96451.41;5081237;28;20672;-71
2023/05/24 02:39:28;;;;;;;1.33;0.98;;;;;;;13.09;89.96;96448.19;5080394;28;20196;-71
2023/05/24 02:41:54;;;;;;;2.35;2.10;;;;;;;12.97;90.65;96464.72;5080671;28;20196;-69
2023/05/24 02:44:21;;;;;;;1.73;1.05;;;;;;;12.94;91.01;96462.47;5080599;28;20203;-73
2023/05/24 02:46:47;;;;;;;2.05;1.33;;;;;;;13.05;88.90;96456.69;5080263;28;20231;-70
2023/05/24 02:49:14;;;;;;;1.05;0.98;;;;;;;12.92;87.28;96464.50;5080243;28;20206;-68
2023/05/24 02:51:42;;;;;;;2.15;1.25;;;;;;;13.02;88.15;96462.34;5080655;28;20659;-72
2023/05/24 02:54:08;;;;;;;1.25;0.82;;;;;;;12.77;86.34;96463.66;5079187;28;20637;-71
2023/05/24 02:56:36;;;;;;;0.90;0.82;;;;;;;12.57;85.24;96462.56;5079660;28;20191;-69
2023/05/24 02:59:02;;;;;;;3.20;0.95;;;;;;;12.66;86.60;96465.94;5079075;28;20234;-70
2023/05/24 03:01:29;;;;;;;1.20;0.82;;;;;;;12.69;85.92;96462.91;5079945;28;20386;-72
2023/05/24 03:03:55;;;;;;;2.47;1.00;;;;;;;12.65;85.13;96459.81;5079422;28;20739;-73
2023/05/24 03:06:22;;;;;;;9.20;0.80;;;;;;;12.68;84.82;96459.47;5079388;28;20212;-69
2023/05/24 03:08:50;;;;;;;3.40;1.00;;;;;;;12.75;84.72;96454.25;5078646;28;20597;-72
2023/05/24 03:11:20;;;;;;;1.45;1.02;;;;;;;12.50;85.08;96455.56;5078637;28;20200;-71
2023/05/24 03:13:47;;;;;;;1.67;1.57;;;;;;;12.68;85.90;96453.34;5079816;28;20208;-69
2023/05/24 03:16:13;;;;;;;1.80;1.27;;;;;;;12.59;85.03;96460.56;5079897;28;20208;-72
2023/05/24 03:18:40;;;;;;;1.77;1.25;;;;;;;12.62;85.13;96462.03;5078985;28;20564;-70
2023/05/24 03:21:07;;;;;;;1.27;0.65;;;;;;;12.50;85.44;96461.69;5079413;28;20204;-72
2023/05/24 03:23:34;;;;;;;1.67;1.58;;;;;;;12.40;85.13;96471.69;5079291;28;20196;-72
2023/05/24 03:26:01;;;;;;;1.42;0.90;;;;;;;12.52;84.77;96459.66;5079772;28;20216;-73
2023/05/24 03:28:28;;;;;;;1.43;0.80;;;;;;;12.33;84.11;96459.38;5079297;28;20223;-69
2023/05/24 03:30:55;;;;;;;1.77;1.10;;;;;;;12.32;84.28;96448.00;5078897;28;20208;-70
2023/05/24 03:33:21;;;;;;;1.60;1.42;;;;;;;12.36;84.99;96451.94;5079019;28;20762;-69
2023/05/24 03:35:48;;;;;;;2.50;1.50;;;;;;;12.43;85.70;96452.00;5079092;28;20204;-72
2023/05/24 03:38:14;;;;;;;3.53;2.67;;;;;;;12.44;86.09;96443.91;5078604;28;20215;-71
2023/05/24 03:40:41;;;;;;;4.50;0.75;;;;;;;12.59;86.42;96452.66;5079247;28;20250;-68
2023/05/24 03:43:09;;;;;;;1.73;0.95;;;;;;;12.47;85.22;96462.03;5079225;28;20203;-71
2023/05/24 03:45:36;;;;;;;0.65;0.65;;;;;;;12.43;84.81;96460.75;5079224;28;20196;-69
2023/05/24 03:48:02;;;;;;;0.60;0.57;;;;;;;12.58;85.98;96458.94;5079057;28;20228;-73
2023/05/24 03:50:29;;;;;;;1.88;1.27;;;;;;;12.72;86.42;96460.75;5079679;28;20204;-68
2023/05/24 03:52:55;;;;;;;1.80;0.95;;;;;;;12.69;85.92;96458.47;5080269;28;20215;-70
2023/05/24 03:55:22;;;;;;;2.67;1.17;;;;;;;12.71;86.19;96463.56;5079730;28;20203;-72
2023/05/24 03:57:48;;;;;;;2.10;1.20;;;;;;;12.59;86.70;96463.22;5083175;28;20261;-69
2023/05/24 04:00:17;;;;;;;0.80;0.80;;;;;;;12.63;86.21;96467.13;5083796;28;20290;-70
2023/05/24 04:02:43;;;;;;;5.70;1.83;;;;;;;12.58;85.83;96461.56;5083324;28;20210;-72
2023/05/24 04:05:11;;;;;;;2.00;1.37;;;;;;;12.53;85.31;96456.00;5083369;28;20208;-72
2023/05/24 04:07:37;;;;;;;1.07;0.60;;;;;;;12.47;85.70;96467.31;5083435;28;20737;-74
2023/05/24 04:10:04;;;;;;;1.33;1.13;;;;;;;12.57;85.77;96459.94;5083347;28;20203;-72
2023/05/24 04:12:31;;;;;;;2.97;1.20;;;;;;;12.34;86.12;96456.56;5083664;28;20195;-72
2023/05/24 04:14:58;;;;;;;1.40;1.20;;;;;;;12.58;86.75;96453.63;5083894;28;20200;-74
2023/05/24 04:17:29;;;;;;;1.13;0.95;;;;;;;12.51;86.37;96454.56;5083328;28;20216;-73
2023/05/24 04:19:55;;;;;;;4.15;2.67;;;;;;;12.35;86.19;96455.56;5083711;28;20207;-71
2023/05/24 04:22:22;;;;;;;5.97;1.50;;;;;;;12.27;87.02;96449.53;5082828;28;20294;-69
2023/05/24 04:24:49;;;;;;;0.80;0.80;;;;;;;12.44;87.34;96448.38;5082875;28;20200;-69
2023/05/24 04:27:16;;;;;;;1.27;1.17;;;;;;;12.44;86.27;96448.38;5082635;28;20227;-72
2023/05/24 04:29:48;;;;;;;1.27;1.10;;;;;;;12.53;87.40;96450.72;5082357;28;20298;-71
2023/05/24 04:32:15;;;;;;;1.07;0.87;;;;;;;12.40;86.80;96461.13;5081695;28;20279;-71
2023/05/24 04:34:44;;;;;;;1.05;0.95;;;;;;;12.55;86.21;96454.03;5081677;28;20215;-70
2023/05/24 04:37:12;;;;;;;2.58;0.98;;;;;;;12.28;86.20;96452.03;5081448;28;20310;-70
2023/05/24 04:39:39;;;;;;;1.30;1.13;;;;;;;12.21;85.51;96458.22;5081098;28;20673;-71
2023/05/24 04:42:06;;;;;;;1.97;1.10;;;;;;;12.21;86.88;96461.66;5081566;28;20211;-73
2023/05/24 04:44:33;;;;;;;3.90;1.05;;;;;;;12.06;86.06;96477.69;5082164;28;20206;-69
2023/05/24 04:47:01;;;;;;;0.60;0.60;;;;;;;12.38;85.75;96483.44;5081684;28;20224;-72
2023/05/24 04:49:28;;;;;;;1.75;0.85;;;;;;;12.25;84.20;96494.63;5081990;28;20290;-71
2023/05/24 04:51:55;;;;;;;1.23;0.97;;;;;;;12.35;84.92;96482.00;5081965;28;21099;-69
2023/05/24 04:54:22;;;;;;;2.40;1.07;;;;;;;12.39;84.86;96485.09;5083553;28;20222;-73
2023/05/24 04:56:49;;;;;;;3.77;1.47;;;;;;;12.36;84.44;96483.63;5083160;28;20222;-71
2023/05/24 04:59:15;;;;;;;2.10;1.40;;;;;;;12.36;83.64;96491.56;5082398;28;20204;-70
2023/05/24 05:01:42;;;;;;;0.67;0.67;;;;;;;12.10;85.17;96481.63;5081495;28;20196;-69
2023/05/24 05:04:08;;;;;;;2.47;1.33;;;;;;;12.22;84.75;96484.44;5080862;28;20219;-72
2023/05/24 05:06:37;;;;;;;1.23;0.57;;;;;;;12.14;84.73;96481.06;5079957;28;20684;-69
2023/05/24 05:09:08;;;;;;;2.27;1.13;;;;;;;12.26;83.34;96484.91;5078526;28;20232;-72
2023/05/24 05:11:34;;;;;;;7.00;1.30;;;;;;;12.27;84.66;96487.38;5078937;28;20204;-71
2023/05/24 05:14:01;;;;;;;1.48;0.93;;;;;;;12.42;83.20;96480.28;5078913;28;20219;-74
2023/05/24 05:16:27;;;;;;;2.97;0.88;;;;;;;12.54;83.49;96488.56;5079413;28;20196;-72
2023/05/24 05:18:54;;;;;;;1.20;1.10;;;;;;;12.35;84.11;96489.09;5077998;28;20220;-71
2023/05/24 05:21:20;;;;;;;3.13;0.63;;;;;;;12.49;82.88;96481.19;5079936;28;20261;-70
2023/05/24 05:23:47;;;;;;;1.25;0.88;;;;;;;12.62;83.07;96484.00;5078445;28;20196;-73
2023/05/24 05:26:15;;;;;;;0.60;0.60;;;;;;;12.88;83.96;96476.41;5078781;28;20759;-74
2023/05/24 05:28:41;;;;;;;5.88;0.75;;;;;;;12.81;84.42;96483.44;5078174;28;20227;-71
2023/05/24 05:31:08;;;;;;;2.65;1.30;;;;;;;12.73;82.13;96478.25;5078344;28;20204;-72
2023/05/24 05:33:34;;;;;;;1.10;1.00;;;;;;;12.94;82.21;96470.41;5078883;28;20200;-72
2023/05/24 05:36:01;;;;;;;0.98;0.77;;;;;;;12.84;83.61;96467.19;5078475;28;20224;-70
2023/05/24 05:38:27;;;;;;;1.98;1.40;;;;;;;12.81;85.50;96471.00;5077772;28;20216;-70
2023/05/24 05:40:54;;;;;;;1.15;0.82;;;;;;;12.79;84.52;96472.19;5078427;28;20200;-74
2023/05/24 05:43:21;;;;;;;1.10;0.95;;;;;;;12.88;84.70;96468.47;5079124;28;20204;-72
2023/05/24 05:45:48;;;;;;;3.28;1.27;;;;;;;12.89;83.96;96464.84;5078730;28;20200;-71
2023/05/24 05:48:14;;;;;;;3.17;1.02;;;;;;;12.77;83.35;96468.94;5077455;28;20224;-72
2023/05/24 05:50:41;;;;;;;4.60;1.38;;;;;;;12.90;84.14;96467.28;5078726;28;20215;-71
2023/05/24 05:53:07;;;;;;;0.70;0.70;;;;;;;12.85;85.71;96469.66;5078705;28;20211;-71
2023/05/24 05:55:34;;;;;;;11.80;1.02;;;;;;;12.90;85.05;96479.72;5078114;28;20211;-75
2023/05/24 05:58:01;;;;;;;2.42;1.60;;;;;;;12.67;84.42;96472.88;5077800;28;20315;-71
2023/05/24 06:00:29;;;;;;;1.73;0.90;;;;;;;12.93;83.52;96469.59;5078248;28;20200;-73
2023/05/24 06:02:55;;;;;;;5.72;2.00;;;;;;;12.93;84.17;96481.97;5078284;28;20207;-72
2023/05/24 06:05:22;;;;;;;2.17;1.35;;;;;;;12.85;85.75;96477.59;5078520;28;20207;-71
2023/05/24 06:07:49;;;;;;;2.55;1.27;;;;;;;12.83;84.47;96484.88;5077437;28;20255;-75
2023/05/24 06:10:15;;;;;;;1.00;0.90;;;;;;;12.69;84.15;96487.56;5077933;28;20296;-71
2023/05/24 06:12:42;;;;;;;0.63;0.63;;;;;;;12.95;85.41;96491.38;5078086;28;20212;-75
2023/05/24 06:15:09;;;;;;;1.65;0.80;;;;;;;13.10;84.69;96486.06;5078168;28;20204;-72
2023/05/24 06:17:37;;;;;;;1.15;1.00;;;;;;;13.08;85.08;96486.22;5076180;28;20220;-75
2023/05/24 06:20:14;;;;;;;1.67;1.38;;;;;;;13.10;84.84;96491.34;5076674;28;20229;-73
2023/05/24 06:22:41;;;;;;;0.77;0.70;;;;;;;12.98;84.01;96487.53;5077949;28;20195;-75
2023/05/24 06:25:08;;;;;;;1.27;0.90;;;;;;;12.99;84.47;96494.47;5077790;28;20208;-74
2023/05/24 06:27:35;;;;;;;2.63;1.30;;;;;;;12.79;84.75;96483.63;5077075;28;20599;-71
2023/05/24 06:30:01;;;;;;;1.42;1.15;;;;;;;13.07;85.37;96491.72;5077441;28;20200;-75
2023/05/24 06:32:28;;;;;;;3.78;2.03;;;;;;;12.92;83.64;96493.59;5077774;28;20224;-74
2023/05/24 06:34:56;;;;;;;7.07;1.13;;;;;;;13.03;83.26;96485.97;5077728;28;20203;-74
2023/05/24 06:37:24;;;;;;;2.80;0.80;;;;;;;12.90;83.94;96490.28;5076824;28;20215;-73
2023/05/24 06:39:51;;;;;;;1.17;0.98;;;;;;;13.08;82.81;96494.16;5076896;28;20211;-75
2023/05/24 06:42:17;;;;;;;0.80;0.80;;;;;;;13.22;84.77;96482.72;5077541;28;20204;-75
2023/05/24 06:44:44;;;;;;;2.78;1.33;;;;;;;13.28;82.97;96483.81;5077596;28;20207;-72
2023/05/24 06:47:10;;;;;;;2.20;1.63;;;;;;;13.31;83.44;96492.19;5076940;28;20647;-75
2023/05/24 06:49:37;;;;;;;2.25;1.35;;;;;;;13.39;82.34;96494.75;5077428;28;20878;-76
2023/05/24 06:52:06;;;;;;;3.83;1.40;;;;;;;13.42;80.85;96489.88;5077291;28;20200;-72
2023/05/24 06:54:33;;;;;;;0.52;0.52;;;;;;;13.26;80.99;96491.94;5076819;28;20200;-72
2023/05/24 06:56:59;;;;;;;1.42;1.20;;;;;;;13.26;79.95;96496.41;5077140;28;20203;-71
2023/05/24 06:59:26;;;;;;;1.70;1.52;;;;;;;13.37;80.65;96488.81;5076796;28;20207;-72
2023/05/24 07:01:56;;;;;;;1.15;0.88;;;;;;;13.38;82.67;96490.44;5076547;28;20196;-74
2023/05/24 07:04:23;;;;;;;3.50;1.30;;;;;;;13.49;80.65;96496.06;5077674;28;20207;-71
2023/05/24 07:06:49;;;;;;;0.85;0.70;;;;;;;13.58;79.00;96497.59;5076731;28;20195;-72
2023/05/24 07:09:17;;;;;;;2.33;1.00;;;;;;;13.40;79.50;96494.53;5075581;28;20219;-74
2023/05/24 07:11:44;;;;;;;0.75;0.73;;;;;;;13.43;78.75;96499.47;5076248;28;21013;-72
2023/05/24 07:14:10;;;;;;;2.53;1.50;;;;;;;13.46;80.16;96496.41;5076500;28;20586;-72
2023/05/24 07:16:37;;;;;;;2.10;1.02;;;;;;;13.71;79.18;96502.16;5075458;28;20481;-74
2023/05/24 07:19:03;;;;;;;1.27;1.17;;;;;;;13.49;79.93;96500.53;5075678;28;20220;-76
2023/05/24 07:21:30;;;;;;;4.38;1.17;;;;;;;13.87;81.46;96507.22;5076675;28;20195;-72
2023/05/24 07:23:57;;;;;;;2.40;1.35;;;;;;;13.87;81.99;96507.22;5075568;28;20563;-72
2023/05/24 07:26:25;;;;;;;0.75;0.75;;;;;;;13.95;80.98;96507.91;5076693;28;20196;-73
2023/05/24 07:28:51;;;;;;;0.80;0.80;;;;;;;13.81;78.81;96514.09;5075425;28;20235;-72
2023/05/24 07:31:18;;;;;;;0.90;0.60;;;;;;;13.98;75.70;96510.16;5075904;28;20200;-72
2023/05/24 07:33:44;;;;;;;1.60;1.45;;;;;;;14.07;77.93;96519.63;5075993;28;20203;-76
2023/05/24 07:36:11;;;;;;;4.55;0.82;;;;;;;14.16;78.63;96529.09;5076132;28;20239;-72
2023/05/24 07:38:37;;;;;;;1.20;0.77;;;;;;;14.23;77.11;96524.66;5075279;28;20778;-75
2023/05/24 07:41:07;;;;;;;1.65;1.10;;;;;;;14.55;79.24;96526.72;5074815;28;20312;-74
2023/05/24 07:43:36;;;;;;;1.65;0.80;;;;;;;14.76;73.87;96532.78;5074842;28;20224;-71
2023/05/24 07:46:03;;;;;;;1.65;1.25;;;;;;;14.63;74.04;96533.53;5075372;28;20216;-70
2023/05/24 07:48:29;;;;;;;3.28;1.52;;;;;;;15.10;72.29;96527.47;5074338;28;20232;-72
2023/05/24 07:50:56;;;;;;;2.17;1.30;;;;;;;15.01;71.92;96526.81;5075272;28;20584;-71
2023/05/24 07:53:22;;;;;;;1.00;0.90;;;;;;;15.01;74.14;96526.00;5075829;28;20555;-71
2023/05/24 07:55:49;;;;;;;1.15;0.93;;;;;;;15.35;76.46;96516.13;5075793;28;20207;-73
2023/05/24 07:58:16;;;;;;;2.60;1.38;;;;;;;15.65;76.81;96523.59;5074358;28;20219;-72
2023/05/24 08:00:44;;;;;;;1.83;1.20;;;;;;;15.19;75.31;96523.63;5075663;28;20668;-75
2023/05/24 08:03:13;;;;;;;2.63;1.40;;;;;;;14.83;76.60;96531.81;5074350;28;20204;-76
2023/05/24 08:05:40;;;;;;;1.30;0.80;;;;;;;14.95;73.55;96526.78;5074171;28;20663;-74
2023/05/24 08:08:06;;;;;;;9.02;1.23;;;;;;;14.72;73.53;96531.53;5074483;28;20316;-72
2023/05/24 08:10:33;;;;;;;1.77;1.23;;;;;;;14.94;72.81;96531.28;5075141;28;20307;-73
2023/05/24 08:12:59;;;;;;;6.10;1.05;;;;;;;15.17;73.22;96529.13;5075222;28;20200;-72
2023/05/24 08:15:25;;;;;;;1.65;1.48;;;;;;;14.80;75.69;96539.34;5075316;28;20211;-71
2023/05/24 08:17:53;;;;;;;2.90;1.58;;;;;;;14.80;76.52;96534.03;5074454;28;20598;-74
2023/05/24 08:20:20;;;;;;;1.88;1.17;;;;;;;14.86;72.70;96534.06;5074779;28;20204;-72
2023/05/24 08:22:47;;;;;;;2.00;1.10;;;;;;;14.87;72.75;96541.03;5075544;28;20204;-73
2023/05/24 08:25:14;;;;;;;2.22;1.42;;;;;;;14.93;73.10;96544.72;5075062;28;20228;-72
2023/05/24 08:27:41;;;;;;;1.73;0.95;;;;;;;14.73;73.33;96538.50;5074394;28;20219;-77
2023/05/24 08:30:09;;;;;;;2.28;1.20;;;;;;;14.65;75.99;96543.97;5075473;28;20289;-72
2023/05/24 08:32:37;;;;;;;2.47;1.20;;;;;;;14.59;75.70;96543.88;5075562;28;20196;-73
2023/05/24 08:35:06;;;;;;;3.97;1.20;;;;;;;14.86;74.45;96534.06;5075156;28;20864;-77
2023/05/24 08:37:32;;;;;;;1.20;0.90;;;;;;;14.69;74.16;96540.72;5075030;28;20227;-75
2023/05/24 08:39:59;;;;;;;1.77;1.05;;;;;;;14.63;74.37;96538.81;5074632;28;20682;-72
2023/05/24 08:42:25;;;;;;;1.70;1.60;;;;;;;14.53;75.21;96548.16;5076087;28;20208;-73
2023/05/24 08:44:55;;;;;;;1.38;1.27;;;;;;;14.42;76.74;96540.75;5078947;28;20200;-74
2023/05/24 08:47:22;;;;;;;2.15;1.70;;;;;;;14.38;76.99;96549.25;5078726;28;21040;-72
2023/05/24 08:49:51;;;;;;;0.93;0.88;;;;;;;14.73;77.16;96543.81;5079005;28;20266;-75
2023/05/24 08:52:20;;;;;;;1.55;1.02;;;;;;;14.87;75.25;96546.31;5079080;28;20196;-75
2023/05/24 08:54:48;;;;;;;2.53;1.52;;;;;;;15.01;76.07;96537.41;5078965;28;20578;-72
2023/05/24 08:57:16;;;;;;;1.30;1.15;;;;;;;15.10;75.44;96540.75;5078199;28;20228;-72
2023/05/24 08:59:43;;;;;;;1.63;1.25;;;;;;;14.79;72.54;96538.53;5078247;28;20595;-72
2023/05/24 09:02:13;;;;;;;2.17;1.40;;;;;;;14.64;73.74;96555.56;5077055;28;20218;-75
2023/05/24 09:04:43;;;;;;;2.33;0.80;;;;;;;14.86;71.10;96549.19;5077630;28;20207;-72
2023/05/24 09:07:11;;;;;;;1.73;1.25;;;;;;;14.81;70.79;96555.06;5077091;28;20230;-77
2023/05/24 09:09:43;;;;;;;0.80;0.80;;;;;;;15.04;71.53;96547.63;5078407;28;20216;-71
2023/05/24 09:12:14;;;;;;;1.85;1.60;;;;;;;15.12;69.25;96550.16;5075858;28;20207;-72
2023/05/24 09:14:45;;;;;;;4.50;2.45;;;;;;;15.41;68.21;96544.56;5079004;28;20208;-74
2023/05/24 09:17:14;;;;;;;5.90;0.82;;;;;;;15.36;69.27;96547.00;5079334;28;20231;-76
2023/05/24 09:19:43;;;;;;;0.60;0.60;;;;;;;15.41;72.40;96539.25;5078976;28;20500;-73
2023/05/24 09:22:10;;;;;;;2.78;2.33;;;;;;;15.17;72.29;96555.66;5078054;28;20199;-72
2023/05/24 09:24:42;;;;;;;1.83;1.42;;;;;;;15.27;72.12;96550.84;5078810;28;20234;-72
2023/05/24 09:27:09;;;;;;;4.53;1.48;;;;;;;14.82;71.46;96556.69;5078992;28;20211;-75
2023/05/24 09:29:36;;;;;;;3.30;1.63;;;;;;;14.78;70.88;96563.41;5077183;28;20223;-72
2023/05/24 09:32:03;;;;;;;4.28;1.27;;;;;;;14.57;70.55;96561.84;5078600;28;20214;-74
2023/05/24 09:34:33;;;;;;;9.82;0.98;;;;;;;14.45;70.95;96558.09;5078854;28;20585;-75
2023/05/24 09:37:01;;;;;;;1.98;1.02;;;;;;;14.76;69.63;96556.66;5078782;28;20208;-71
2023/05/24 09:39:28;;;;;;;10.35;1.60;;;;;;;14.65;72.36;96557.22;5078282;28;20192;-73
2023/05/24 09:41:56;;;;;;;1.00;0.93;;;;;;;14.62;70.13;96551.47;5078749;28;20204;-74
2023/05/24 09:44:25;;;;;;;2.83;1.33;;;;;;;14.50;67.61;96561.81;5078336;28;20200;-73
2023/05/24 09:46:52;;;;;;;1.52;1.13;;;;;;;14.60;70.03;96564.09;5077888;28;20204;-74
2023/05/24 09:49:20;;;;;;;3.20;1.25;;;;;;;14.96;68.80;96571.69;5078356;28;20224;-75
2023/05/24 09:51:48;;;;;;;3.67;1.42;;;;;;;15.01;69.03;96566.63;5078559;28;20204;-72
2023/05/24 09:54:15;;;;;;;2.05;0.98;;;;;;;15.09;67.18;96566.44;5078114;28;20207;-72
2023/05/24 09:56:42;;;;;;;1.95;1.10;;;;;;;15.19;67.72;96555.47;5078417;28;20199;-73
2023/05/24 09:59:09;;;;;;;2.83;1.30;;;;;;;15.14;71.85;96564.03;5077471;28;20227;-76
2023/05/24 10:01:36;;;;;;;2.92;1.45;;;;;;;15.22;67.12;96561.22;5078546;28;20214;-74
2023/05/24 10:04:05;;;;;;;5.57;1.02;;;;;;;15.27;68.00;96569.41;5078156;28;20203;-72
2023/05/24 10:06:36;;;;;;;1.40;1.00;;;;;;;15.55;67.74;96560.34;5077834;28;20298;-72
2023/05/24 10:09:04;;;;;;;8.43;1.88;;;;;;;15.28;68.86;96561.25;5077494;28;20285;-72
2023/05/24 10:11:31;;;;;;;1.85;1.45;;;;;;;15.37;66.99;96560.06;5078277;28;20200;-71
2023/05/24 10:13:59;;;;;;;1.50;0.88;;;;;;;15.35;67.74;96567.44;5078459;28;20204;-75
2023/05/24 10:16:27;;;;;;;0.90;0.90;;;;;;;15.49;65.92;96568.28;5079013;28;20199;-72
2023/05/24 10:18:55;;;;;;;2.75;1.42;;;;;;;15.33;65.54;96569.44;5077499;28;20310;-75
2023/05/24 10:21:23;;;;;;;1.63;1.48;;;;;;;15.10;68.20;96575.25;5078107;28;20200;-72
2023/05/24 10:23:57;;;;;;;6.03;1.25;;;;;;;15.07;67.31;96568.50;5078269;28;20219;-75
2023/05/24 10:26:25;;;;;;;1.67;1.35;;;;;;;15.24;69.38;96559.22;5078136;28;20196;-74
2023/05/24 10:28:57;;;;;;;2.28;1.00;;;;;;;14.96;68.38;96565.56;5077259;28;20239;-73
2023/05/24 10:31:30;;;;;;;9.02;1.48;;;;;;;15.16;67.84;96554.03;5076933;28;20232;-76
2023/05/24 10:34:00;;;;;;;1.95;1.40;;;;;;;15.22;68.59;96566.53;5077671;28;20393;-73
2023/05/24 10:36:27;;;;;;;2.95;0.90;;;;;;;15.34;69.65;96562.31;5077729;28;20605;-75
2023/05/24 10:38:54;;;;;;;2.25;1.02;;;;;;;15.57;69.71;96565.47;5076937;28;20222;-75
2023/05/24 10:41:21;;;;;;;2.00;1.48;;;;;;;15.33;67.64;96560.69;5077398;28;20210;-72
2023/05/24 10:43:47;;;;;;;3.35;1.52;;;;;;;15.25;69.43;96556.34;5077441;28;20202;-75
2023/05/24 10:46:16;;;;;;;1.65;0.93;;;;;;;15.40;67.00;96556.19;5077553;28;20200;-72
2023/05/24 10:48:44;;;;;;;1.75;1.30;;;;;;;15.41;67.86;96561.34;5076630;28;20219;-75
2023/05/24 10:51:31;;;;;;;9.98;1.05;;;;;;;15.61;66.61;96550.78;5077502;28;20214;-75
2023/05/24 10:53:58;;;;;;;1.60;1.20;;;;;;;15.19;65.64;96555.47;5076854;28;20199;-72
2023/05/24 10:56:27;;;;;;;13.20;1.67;;;;;;;15.07;64.22;96547.25;5077408;28;20226;-71
2023/05/24 10:59:01;;;;;;;1.30;1.17;;;;;;;15.15;67.46;96548.91;5076203;28;21019;-71
2023/05/24 11:01:29;;;;;;;6.22;1.35;;;;;;;15.11;68.74;96551.16;5077162;28;20206;-70
2023/05/24 11:04:08;;;;;;;2.53;1.60;;;;;;;14.82;66.45;96545.28;5076362;28;20199;-70
2023/05/24 11:06:48;;;;;;;4.85;1.08;;;;;;;15.08;65.49;96548.06;5076940;28;20343;-71
2023/05/24 11:09:15;;;;;;;2.95;1.50;;;;;;;15.18;66.68;96544.03;5076394;28;20223;-70
2023/05/24 11:11:45;;;;;;;2.53;1.05;;;;;;;15.20;67.84;96544.66;5077307;28;20277;-70
2023/05/24 11:14:12;;;;;;;1.80;1.27;;;;;;;14.80;68.24;96540.19;5077061;28;20235;-70
2023/05/24 11:16:39;;;;;;;7.40;1.50;;;;;;;15.02;66.71;96540.88;5073744;28;20775;-71
2023/05/24 11:19:16;;;;;;;1.75;1.05;;;;;;;15.28;66.56;96533.91;5074710;28;20226;-70
2023/05/24 11:21:44;;;;;;;2.33;0.98;;;;;;;15.38;67.21;96539.66;5076062;28;20201;-71
2023/05/24 11:24:10;;;;;;;2.70;1.52;;;;;;;15.16;72.53;96540.78;5076269;28;20207;-70
2023/05/24 11:26:37;;;;;;;1.52;1.08;;;;;;;15.27;66.95;96530.44;5076029;28;20191;-71
2023/05/24 11:29:05;;;;;;;3.65;2.03;;;;;;;15.07;65.50;96541.94;5075092;28;20242;-71
2023/05/24 11:31:31;;;;;;;8.43;1.67;;;;;;;15.18;69.33;96537.91;5076930;28;20231;-71
2023/05/24 11:34:00;;;;;;;2.38;1.55;;;;;;;15.27;65.55;96540.22;5076340;28;20196;-72